Time;durP1;ratioP1;P1;durP2;ratioP2;P2;SDS_P1;SDS_P2;PMS_P1;PMS_P2;Temp;Humidity;BMP_temperature;BMP_pressure;BME280_temperature;BME280_humidity;BME280_pressure;Samples;Min_cycle;Max_cycle;Signal;HPM_P1;HPM_P2
2022/07/11 00:02:12;;;;;;;2.67;0.90;;;14.40;66.30;;;13.32;73.96;96628.44;4945193;28;20046;-67
2022/07/11 00:04:38;;;;;;;3.13;1.40;;;14.30;66.50;;;13.28;73.85;96624.56;4959413;28;20502;-68
2022/07/11 00:07:04;;;;;;;2.35;1.02;;;14.30;66.80;;;13.27;74.30;96624.75;4947469;28;20039;-68
2022/07/11 00:09:30;;;;;;;2.25;0.93;;;14.30;66.80;;;13.26;74.61;96617.84;4946302;28;20039;-67
2022/07/11 00:11:56;;;;;;;4.22;1.23;;;14.30;66.90;;;13.24;74.57;96614.56;4944144;28;20066;-68
2022/07/11 00:14:22;;;;;;;2.95;1.23;;;14.20;66.60;;;13.22;74.75;96614.78;4945231;28;20065;-68
2022/07/11 00:16:48;;;;;;;3.40;1.02;;;14.20;66.60;;;13.20;74.87;96614.16;4956156;28;20069;-67
2022/07/11 00:19:14;;;;;;;1.98;1.00;;;14.20;66.80;;;13.16;74.50;96612.88;4928728;28;20121;-68
2022/07/11 00:21:40;;;;;;;4.13;1.27;;;14.20;67.00;;;13.13;75.55;96619.38;4947062;28;20035;-67
2022/07/11 00:24:07;;;;;;;3.70;1.30;;;14.10;67.10;;;13.10;74.84;96608.34;4914269;28;20499;-67
2022/07/11 00:26:34;;;;;;;3.70;1.42;;;14.10;67.20;;;13.08;74.69;96605.06;4962961;28;20565;-67
2022/07/11 00:28:59;;;;;;;3.10;1.00;;;14.10;67.40;;;13.06;74.82;96612.38;4944387;28;20031;-67
2022/07/11 00:31:25;;;;;;;1.10;0.90;;;14.10;67.40;;;13.05;75.70;96614.19;4965739;28;20038;-68
2022/07/11 00:33:51;;;;;;;2.05;0.90;;;14.10;67.40;;;13.05;75.90;96608.09;4962273;28;20069;-67
2022/07/11 00:36:16;;;;;;;3.08;1.10;;;14.10;67.30;;;13.02;75.45;96608.50;4965982;28;20031;-67
2022/07/11 00:38:42;;;;;;;2.97;1.25;;;14.00;67.30;;;13.01;75.39;96610.31;4958208;28;20118;-68
2022/07/11 00:41:08;;;;;;;5.63;1.33;;;14.00;67.00;;;12.96;75.85;96602.16;4945500;28;20139;-67
2022/07/11 00:43:38;;;;;;;1.95;0.90;;;14.00;67.20;;;12.94;76.57;96600.72;4961882;28;20042;-67
2022/07/11 00:46:05;;;;;;;2.08;1.00;;;14.00;67.30;;;12.93;75.49;96596.44;4946594;28;20043;-67
2022/07/11 00:48:30;;;;;;;2.88;1.13;;;14.00;67.30;;;12.92;75.36;96597.47;4948205;28;20184;-67
2022/07/11 00:50:57;;;;;;;3.28;0.88;;;13.90;67.50;;;12.88;75.76;96597.00;4943606;28;20090;-67
2022/07/11 00:53:23;;;;;;;2.47;1.15;;;13.90;67.60;;;12.87;75.85;96593.53;4948297;28;20046;-67
2022/07/11 00:55:49;;;;;;;3.38;1.02;;;13.90;67.90;;;12.84;76.61;96588.66;4948855;28;20597;-67
2022/07/11 00:58:15;;;;;;;1.63;0.80;;;13.80;68.10;;;12.82;76.54;96598.59;4944674;28;20040;-67
2022/07/11 01:00:41;;;;;;;5.97;1.17;;;13.80;68.20;;;12.81;76.55;96598.78;4947166;28;20079;-67
2022/07/11 01:03:09;;;;;;;1.77;1.10;;;13.80;68.40;;;12.78;77.19;96594.69;4927285;28;20065;-68
2022/07/11 01:05:35;;;;;;;5.53;1.30;;;13.80;68.50;;;12.75;77.15;96595.09;4928116;28;20743;-68
2022/07/11 01:08:01;;;;;;;5.78;1.17;;;13.70;68.70;;;12.73;77.19;96594.47;4944672;28;20074;-67
2022/07/11 01:10:27;;;;;;;1.50;0.90;;;13.70;68.80;;;12.70;77.81;96594.84;4946089;28;20050;-67
2022/07/11 01:12:53;;;;;;;3.38;1.35;;;13.70;69.00;;;12.65;78.23;96599.84;4946063;28;20043;-67
2022/07/11 01:15:19;;;;;;;3.13;1.10;;;13.60;69.30;;;12.60;77.82;96604.88;4949390;28;21161;-68
2022/07/11 01:17:44;;;;;;;2.30;1.30;;;13.60;69.70;;;12.54;77.78;96597.72;4968803;28;20094;-67
2022/07/11 01:20:11;;;;;;;2.75;1.30;;;13.60;69.90;;;12.52;78.91;96599.75;4936197;28;20079;-67
2022/07/11 01:22:42;;;;;;;3.92;1.30;;;13.50;70.20;;;12.48;79.73;96601.13;4962944;28;20041;-67
2022/07/11 01:25:08;;;;;;;3.80;1.40;;;13.50;70.50;;;12.44;79.94;96600.66;4952740;28;20031;-67
2022/07/11 01:27:34;;;;;;;2.95;1.33;;;13.50;70.70;;;12.42;80.58;96589.47;4931914;28;20144;-67
2022/07/11 01:29:59;;;;;;;3.05;1.30;;;13.50;70.90;;;12.38;80.55;96592.69;4958616;28;20463;-67
2022/07/11 01:32:25;;;;;;;2.97;1.20;;;13.50;71.10;;;12.31;80.34;96586.53;4967204;28;20074;-68
2022/07/11 01:34:51;;;;;;;3.17;1.10;;;13.30;71.00;;;12.27;80.81;96592.19;4942061;28;20036;-67
2022/07/11 01:37:16;;;;;;;2.88;1.38;;;13.30;71.00;;;12.27;80.74;96591.38;4963333;28;20073;-67
2022/07/11 01:39:42;;;;;;;3.17;1.38;;;13.40;71.00;;;12.23;80.52;96590.94;4964552;28;20406;-67
2022/07/11 01:42:08;;;;;;;3.40;1.23;;;13.30;70.90;;;12.22;80.65;96581.41;4964321;28;20171;-68
2022/07/11 01:44:34;;;;;;;1.73;0.98;;;13.30;70.80;;;12.18;81.09;96588.03;4945918;28;20035;-67
2022/07/11 01:46:59;;;;;;;5.18;1.55;;;13.30;70.70;;;12.17;80.63;96581.13;4912522;28;20585;-67
2022/07/11 01:49:29;;;;;;;2.25;1.20;;;13.30;70.50;;;12.16;80.56;96579.47;4933190;28;20085;-68
2022/07/11 01:51:55;;;;;;;3.22;1.08;;;13.30;70.20;;;12.15;79.93;96577.84;4965390;28;20030;-67
2022/07/11 01:54:21;;;;;;;3.55;1.30;;;13.30;70.00;;;12.15;80.08;96571.75;4946599;28;20392;-67
2022/07/11 01:56:47;;;;;;;2.95;1.20;;;13.20;70.00;;;12.15;79.63;96575.22;4943522;28;20050;-67
2022/07/11 01:59:13;;;;;;;3.58;1.20;;;13.30;69.80;;;12.12;79.88;96569.50;4940940;28;20089;-67
2022/07/11 02:01:39;;;;;;;3.28;1.30;;;13.20;69.70;;;12.10;79.90;96572.31;4940828;28;20091;-67
2022/07/11 02:04:05;;;;;;;2.25;1.10;;;13.10;69.70;;;12.10;79.97;96571.50;4946914;28;20026;-67
2022/07/11 02:06:31;;;;;;;2.28;1.00;;;13.20;69.90;;;12.09;80.12;96572.50;4963819;28;20054;-67
2022/07/11 02:08:57;;;;;;;3.95;1.48;;;13.20;69.80;;;12.07;79.57;96567.44;4958035;28;20110;-67
2022/07/11 02:11:23;;;;;;;2.10;1.15;;;13.20;69.80;;;12.07;79.45;96564.78;4948149;28;20090;-67
2022/07/11 02:13:49;;;;;;;3.65;1.52;;;13.10;69.50;;;12.06;79.38;96573.72;4961660;28;20050;-67
2022/07/11 02:16:15;;;;;;;3.67;1.48;;;13.10;69.60;;;12.04;79.93;96562.53;4932456;28;20039;-67
2022/07/11 02:18:41;;;;;;;2.42;1.30;;;13.10;69.60;;;12.02;79.73;96561.91;4964175;28;20039;-68
2022/07/11 02:21:08;;;;;;;4.05;1.38;;;13.10;69.60;;;12.01;79.71;96570.81;4963592;28;20039;-68
2022/07/11 02:23:33;;;;;;;3.10;1.30;;;13.10;69.80;;;11.99;79.75;96564.88;4964555;28;20388;-67
2022/07/11 02:26:00;;;;;;;3.30;1.40;;;13.10;69.80;;;11.97;80.31;96569.53;4930481;28;20049;-68
2022/07/11 02:28:26;;;;;;;3.83;1.45;;;13.10;70.00;;;11.97;80.53;96564.25;4946475;28;20035;-67
2022/07/11 02:30:51;;;;;;;1.77;1.00;;;13.10;70.10;;;11.95;80.32;96568.91;4929766;28;20615;-67
2022/07/11 02:33:17;;;;;;;3.63;1.30;;;13.10;70.20;;;11.92;80.56;96566.66;4946023;28;20786;-67
2022/07/11 02:35:46;;;;;;;3.67;1.40;;;13.00;70.50;;;11.90;81.17;96568.66;4929781;28;20035;-67
2022/07/11 02:38:13;;;;;;;3.22;1.45;;;13.00;70.70;;;11.89;80.94;96569.66;4963886;28;20703;-67
2022/07/11 02:40:39;;;;;;;4.43;1.50;;;13.00;70.70;;;11.89;81.46;96561.75;4935118;28;20053;-67
2022/07/11 02:43:05;;;;;;;3.85;1.25;;;13.00;70.70;;;11.85;81.44;96571.03;4946832;28;20027;-68
2022/07/11 02:45:31;;;;;;;3.55;1.30;;;12.90;70.80;;;11.82;81.48;96566.13;4947493;28;20054;-67
2022/07/11 02:47:57;;;;;;;1.90;1.10;;;12.90;70.90;;;11.78;81.64;96564.84;4947439;28;20035;-67
2022/07/11 02:50:22;;;;;;;3.10;1.20;;;12.90;71.00;;;11.73;81.40;96564.56;4949775;28;20411;-67
2022/07/11 02:52:48;;;;;;;3.88;1.20;;;12.80;71.10;;;11.73;81.60;96573.28;4941045;28;20031;-67
2022/07/11 02:55:15;;;;;;;1.92;1.13;;;12.80;71.40;;;11.71;81.27;96572.66;4947325;28;21022;-68
2022/07/11 02:57:40;;;;;;;2.28;1.13;;;12.80;71.40;;;11.69;81.86;96571.22;4944405;28;20473;-67
2022/07/11 03:00:10;;;;;;;3.28;1.10;;;12.80;71.30;;;11.64;82.22;96561.22;4938323;28;20086;-67
2022/07/11 03:02:36;;;;;;;3.28;1.20;;;12.70;71.00;;;11.57;82.03;96569.06;4959150;28;20120;-68
2022/07/11 03:05:02;;;;;;;1.98;1.17;;;12.60;71.00;;;11.55;81.88;96560.53;4963502;28;20063;-67
2022/07/11 03:07:28;;;;;;;1.92;1.00;;;12.60;71.10;;;11.54;82.24;96558.88;4948767;28;20034;-68
2022/07/11 03:09:54;;;;;;;2.40;1.20;;;12.60;71.50;;;11.54;82.48;96561.50;4966328;28;20777;-67
2022/07/11 03:12:20;;;;;;;6.75;4.07;;;12.70;71.60;;;11.53;82.47;96562.50;4947578;28;20511;-67
2022/07/11 03:14:46;;;;;;;11.07;8.63;;;12.70;71.80;;;11.53;83.15;96562.50;4953540;28;20039;-67
2022/07/11 03:17:12;;;;;;;8.73;7.00;;;12.70;71.70;;;11.55;82.99;96565.78;4926116;28;20124;-68
2022/07/11 03:19:37;;;;;;;4.35;1.98;;;12.70;71.60;;;11.55;82.60;96560.53;4954527;28;20039;-68
2022/07/11 03:22:04;;;;;;;3.95;1.63;;;12.70;71.30;;;11.56;82.47;96556.88;4977826;28;20050;-68
2022/07/11 03:24:30;;;;;;;4.88;2.20;;;12.80;71.40;;;11.56;82.59;96564.78;4947705;28;20843;-67
2022/07/11 03:26:56;;;;;;;7.75;6.50;;;12.70;70.90;;;11.56;82.28;96559.50;4932011;28;20070;-68
2022/07/11 03:29:21;;;;;;;4.63;2.80;;;12.70;71.20;;;11.57;82.52;96558.50;4945325;28;20050;-67
2022/07/11 03:31:47;;;;;;;4.30;1.67;;;12.70;71.30;;;11.59;82.36;96563.59;4963886;28;20047;-68
2022/07/11 03:34:13;;;;;;;2.42;1.10;;;12.80;71.20;;;11.58;82.39;96554.06;4956236;28;20046;-68
2022/07/11 03:36:39;;;;;;;1.55;0.82;;;12.80;70.70;;;11.58;82.46;96554.06;4948222;28;20050;-68
2022/07/11 03:39:04;;;;;;;2.05;1.20;;;12.70;70.70;;;11.58;82.74;96560.16;4963024;28;20067;-67
2022/07/11 03:41:30;;;;;;;8.43;5.75;;;12.80;70.80;;;11.58;83.01;96554.06;4961794;28;20045;-67
2022/07/11 03:43:56;;;;;;;8.32;4.80;;;12.80;71.10;;;11.59;82.25;96556.50;4929066;28;20051;-67
2022/07/11 03:46:23;;;;;;;6.65;4.50;;;12.80;71.00;;;11.60;83.56;96552.88;4961289;28;20414;-67
2022/07/11 03:48:48;;;;;;;4.78;1.83;;;12.80;71.30;;;11.61;83.25;96556.31;4962407;28;20026;-67
2022/07/11 03:51:16;;;;;;;5.30;3.88;;;12.80;70.80;;;11.61;83.41;96564.22;4935021;28;20061;-68
2022/07/11 03:53:42;;;;;;;9.13;5.38;;;12.90;70.90;;;11.62;82.99;96564.03;4946273;28;20621;-68
2022/07/11 03:56:08;;;;;;;6.35;3.28;;;12.90;70.90;;;11.64;83.88;96556.78;4931899;28;20516;-67
2022/07/11 03:58:34;;;;;;;6.40;1.92;;;12.90;71.00;;;11.67;83.20;96558.22;4960624;28;20042;-68
2022/07/11 04:00:59;;;;;;;5.00;1.52;;;13.00;70.80;;;11.68;82.50;96556.41;4939427;28;20054;-68
2022/07/11 04:03:25;;;;;;;2.45;1.35;;;13.00;70.70;;;11.70;82.91;96562.28;4947235;28;20038;-68
2022/07/11 04:05:51;;;;;;;2.33;1.27;;;13.00;70.80;;;11.74;83.52;96558.28;4948059;28;20122;-68
2022/07/11 04:08:17;;;;;;;3.25;1.35;;;13.10;70.70;;;11.78;83.01;96564.84;4948575;28;20031;-68
2022/07/11 04:10:43;;;;;;;3.25;1.25;;;13.10;70.10;;;11.82;82.20;96556.41;4967662;28;20038;-68
2022/07/11 04:13:08;;;;;;;3.65;1.40;;;13.10;69.80;;;11.87;82.39;96558.47;4950432;28;20035;-68
2022/07/11 04:15:34;;;;;;;3.42;1.85;;;13.30;69.70;;;11.92;81.63;96567.47;4950163;28;20410;-68
2022/07/11 04:18:00;;;;;;;6.50;3.65;;;13.30;68.90;;;11.93;81.71;96563.81;4966526;28;20517;-68
2022/07/11 04:20:26;;;;;;;4.03;2.20;;;13.20;68.90;;;11.94;81.26;96560.19;4948456;28;20046;-68
2022/07/11 04:22:52;;;;;;;3.38;1.27;;;13.30;68.90;;;11.97;81.10;96564.25;4960638;28;20523;-67
2022/07/11 04:25:17;;;;;;;2.78;1.40;;;13.30;68.50;;;12.00;81.28;96556.00;4946234;28;20079;-67
2022/07/11 04:27:43;;;;;;;4.90;1.23;;;13.40;68.70;;;12.03;80.94;96568.00;4945712;28;20090;-67
2022/07/11 04:30:09;;;;;;;5.47;1.15;;;13.40;68.40;;;12.04;80.59;96556.44;4962304;28;20087;-67
2022/07/11 04:32:36;;;;;;;6.85;4.13;;;13.40;68.60;;;12.05;80.79;96561.53;4963596;28;20562;-67
2022/07/11 04:35:03;;;;;;;9.95;5.78;;;13.40;68.60;;;12.09;81.00;96562.78;4963046;28;20169;-68
2022/07/11 04:37:28;;;;;;;8.43;4.10;;;13.50;68.60;;;12.12;80.78;96562.41;4932086;28;20070;-67
2022/07/11 04:39:54;;;;;;;2.92;1.40;;;13.50;68.20;;;12.14;81.12;96555.13;4947283;28;20535;-67
2022/07/11 04:42:20;;;;;;;4.13;1.05;;;13.50;68.10;;;12.17;79.92;96557.38;4932476;28;20122;-65
2022/07/11 04:44:45;;;;;;;2.60;1.05;;;13.50;67.90;;;12.14;79.98;96557.75;4929811;28;20055;-66
2022/07/11 04:47:11;;;;;;;3.90;2.38;;;13.50;67.70;;;12.17;79.49;96554.75;4945711;28;20605;-65
2022/07/11 04:49:37;;;;;;;4.50;1.50;;;13.50;67.40;;;12.16;79.27;96558.38;4934464;28;20541;-68
2022/07/11 04:52:04;;;;;;;5.18;2.10;;;13.60;67.10;;;12.20;79.28;96564.09;4970667;28;20042;-65
2022/07/11 04:54:30;;;;;;;4.40;1.20;;;13.60;67.10;;;12.24;79.37;96560.94;4935516;28;20089;-65
2022/07/11 04:56:56;;;;;;;3.25;1.00;;;13.60;67.20;;;12.26;79.32;96569.47;4970233;28;20034;-66
2022/07/11 04:59:23;;;;;;;2.92;1.20;;;13.60;66.70;;;12.30;79.08;96569.91;4964744;28;20070;-67
2022/07/11 05:01:50;;;;;;;4.43;1.30;;;13.70;67.20;;;12.32;79.15;96577.63;4951156;28;20035;-67
2022/07/11 05:04:15;;;;;;;2.67;0.98;;;13.70;66.90;;;12.39;78.61;96591.69;4918071;29;20067;-64
2022/07/11 05:06:41;;;;;;;3.28;1.08;;;13.80;66.60;;;12.46;79.63;96595.22;4964309;28;20039;-66
2022/07/11 05:09:07;;;;;;;2.40;1.10;;;13.90;67.00;;;12.51;79.81;96587.56;4949952;28;20049;-67
2022/07/11 05:11:34;;;;;;;2.85;1.15;;;14.00;67.40;;;12.56;79.99;96579.88;4947471;28;20416;-67
2022/07/11 05:14:00;;;;;;;2.70;1.02;;;14.10;67.20;;;12.62;78.86;96584.41;4944598;28;20038;-67
2022/07/11 05:16:26;;;;;;;4.10;1.27;;;14.10;66.50;;;12.67;78.96;96587.28;4942777;28;20027;-67
2022/07/11 05:18:52;;;;;;;3.45;1.17;;;14.10;66.70;;;12.72;78.91;96590.19;4962524;28;20095;-67
2022/07/11 05:21:22;;;;;;;3.95;0.90;;;14.20;66.10;;;12.78;78.96;96586.78;4950265;28;20460;-67
2022/07/11 05:23:48;;;;;;;3.88;1.20;;;14.30;66.40;;;12.88;78.79;96597.00;4935837;28;20431;-67
2022/07/11 05:26:14;;;;;;;3.28;1.02;;;14.40;66.50;;;12.96;78.64;96593.41;4932704;28;20063;-68
2022/07/11 05:28:40;;;;;;;3.70;1.33;;;14.50;66.40;;;13.04;79.54;96588.81;4941088;28;20039;-67
2022/07/11 05:31:06;;;;;;;3.08;1.10;;;14.60;66.20;;;13.13;78.76;96597.41;4933681;28;20035;-67
2022/07/11 05:33:32;;;;;;;5.07;1.00;;;14.70;65.90;;;13.21;79.20;96594.66;4953913;28;20414;-67
2022/07/11 05:35:58;;;;;;;3.55;1.27;;;14.80;65.30;;;13.31;79.07;96600.38;4970248;28;20119;-66
2022/07/11 05:38:24;;;;;;;1.85;0.85;;;15.00;65.40;;;13.39;78.84;96592.34;4939121;28;21502;-67
2022/07/11 05:40:49;;;;;;;4.40;1.25;;;15.10;65.10;;;13.49;78.07;96603.34;4934146;28;20148;-67
2022/07/11 05:43:15;;;;;;;4.65;1.13;;;15.20;64.20;;;13.59;78.62;96596.91;4949081;28;20035;-67
2022/07/11 05:45:41;;;;;;;6.57;1.20;;;15.30;64.40;;;13.66;77.89;96603.84;4952605;28;20090;-67
2022/07/11 05:48:07;;;;;;;3.72;1.15;;;15.40;64.00;;;13.74;77.04;96595.75;4951387;28;20035;-67
2022/07/11 05:50:32;;;;;;;2.80;1.08;;;15.40;64.00;;;13.83;77.86;96603.53;4969213;28;20674;-67
2022/07/11 05:52:58;;;;;;;3.47;0.95;;;15.60;64.10;;;13.93;78.22;96599.50;4968406;28;20045;-67
2022/07/11 05:55:24;;;;;;;3.83;0.95;;;15.60;63.70;;;14.01;77.59;96607.25;4966629;28;20503;-67
2022/07/11 05:57:50;;;;;;;2.65;0.85;;;15.80;63.70;;;14.12;76.08;96599.78;4949904;28;20058;-66
2022/07/11 06:00:16;;;;;;;2.50;0.95;;;15.90;63.30;;;14.21;76.87;96596.75;4949682;28;20067;-67
2022/07/11 06:02:44;;;;;;;4.13;1.05;;;16.00;63.50;;;14.30;77.29;96605.34;4936175;28;20030;-67
2022/07/11 06:05:11;;;;;;;1.90;1.00;;;16.10;62.80;;;14.41;76.73;96604.72;4948004;28;20028;-67
2022/07/11 06:10:21;;;;;;;2.63;0.75;;;16.40;62.40;;;14.64;75.49;96602.56;4967415;28;20058;-68
2022/07/11 06:12:47;;;;;;;2.88;0.80;;;16.50;62.00;;;14.73;74.74;96603.22;4937297;28;20066;-67
2022/07/11 06:15:13;;;;;;;3.70;0.80;;;16.50;61.70;;;14.83;74.93;96600.16;4970109;28;20050;-68
2022/07/11 06:17:39;;;;;;;3.53;1.10;;;16.70;61.20;;;14.94;75.63;96599.56;4952557;28;20426;-66
2022/07/11 06:20:05;;;;;;;2.45;0.82;;;16.80;61.80;;;15.05;74.84;96598.13;4968799;28;20065;-67
2022/07/11 06:22:31;;;;;;;2.80;0.90;;;16.90;61.20;;;15.15;74.28;96598.50;4953171;28;20035;-66
2022/07/11 06:24:57;;;;;;;3.15;0.85;;;17.00;60.70;;;15.25;73.67;96591.78;4950756;28;20527;-68
2022/07/11 06:27:23;;;;;;;6.30;1.40;;;17.10;60.30;;;15.36;74.90;96597.44;4945967;28;20075;-65
2022/07/11 06:29:49;;;;;;;2.75;0.80;;;17.30;60.90;;;15.43;74.07;96593.78;4951797;28;20125;-65
2022/07/11 06:32:14;;;;;;;5.28;1.10;;;17.30;60.10;;;15.54;72.22;96597.63;4952254;28;20039;-66
2022/07/11 06:34:40;;;;;;;21.20;13.18;;;17.50;58.70;;;15.65;72.41;96586.44;4950651;28;20126;-67
2022/07/11 06:37:06;;;;;;;5.32;2.33;;;17.60;59.20;;;15.76;72.31;96588.41;4967480;28;20043;-66
2022/07/11 06:39:31;;;;;;;5.28;2.00;;;17.70;59.40;;;15.86;72.09;96594.13;4935954;28;20062;-66
2022/07/11 06:41:57;;;;;;;2.05;0.90;;;17.90;58.30;;;15.96;72.08;96590.19;4936188;28;20446;-66
2022/07/11 06:44:23;;;;;;;4.38;1.38;;;18.00;57.80;;;16.04;71.64;96592.59;4967868;28;20034;-66
2022/07/11 06:46:48;;;;;;;2.33;0.77;;;18.00;57.30;;;16.08;70.71;96583.22;4952896;28;20089;-66
2022/07/11 06:49:14;;;;;;;4.45;1.10;;;18.00;57.20;;;16.18;70.41;96589.69;4961345;28;20089;-68
2022/07/11 06:51:40;;;;;;;2.67;0.93;;;18.10;57.30;;;16.31;70.45;96588.81;4952072;28;20031;-67
2022/07/11 06:54:06;;;;;;;4.28;1.20;;;18.40;57.70;;;16.47;71.15;96593.59;4953343;28;20130;-66
2022/07/11 06:56:32;;;;;;;2.80;0.90;;;18.60;58.00;;;16.61;70.86;96588.22;4968050;28;20514;-68
2022/07/11 06:58:58;;;;;;;4.03;1.00;;;18.70;57.70;;;16.78;70.96;96586.69;4950062;28;20055;-67
2022/07/11 07:01:24;;;;;;;5.90;3.53;;;18.90;57.70;;;16.91;70.35;96588.41;4956528;28;20565;-67
2022/07/11 07:03:49;;;;;;;5.57;2.15;;;19.10;57.00;;;17.02;71.09;96596.53;4951175;28;20042;-69
2022/07/11 07:06:15;;;;;;;4.10;1.17;;;19.20;56.50;;;17.13;71.03;96585.16;4961357;28;20031;-70
2022/07/11 07:08:41;;;;;;;5.43;1.40;;;19.30;56.90;;;17.24;70.78;96596.13;4951966;28;20039;-68
2022/07/11 07:11:07;;;;;;;2.85;0.90;;;19.40;56.20;;;17.38;69.59;96589.63;4967027;28;20027;-75
2022/07/11 07:13:32;;;;;;;6.07;1.15;;;19.60;56.50;;;17.50;69.92;96590.56;4935277;28;20035;-69
2022/07/11 07:15:58;;;;;;;4.75;1.20;;;19.60;57.00;;;17.60;68.84;96593.50;4969073;28;20062;-69
2022/07/11 07:18:24;;;;;;;3.17;0.75;;;19.70;54.90;;;17.74;68.53;96605.66;4950046;28;20403;-66
2022/07/11 07:20:51;;;;;;;4.57;1.10;;;20.00;53.90;;;17.88;67.14;96594.88;4964352;28;20059;-69
2022/07/11 07:23:17;;;;;;;2.83;1.20;;;20.10;53.30;;;18.04;66.58;96588.94;4951357;28;20034;-66
2022/07/11 07:25:43;;;;;;;2.15;0.93;;;20.30;52.50;;;18.17;64.63;96599.44;4933494;28;20423;-72
2022/07/11 07:28:09;;;;;;;2.83;1.00;;;20.30;51.10;;;18.32;65.32;96593.69;4932734;29;20027;-72
2022/07/11 07:30:34;;;;;;;3.00;0.90;;;20.60;51.30;;;18.47;64.28;96599.44;4960248;28;20111;-72
2022/07/11 07:33:00;;;;;;;3.53;1.30;;;20.70;51.00;;;18.63;63.87;96598.03;4952043;28;20491;-72
2022/07/11 07:35:27;;;;;;;2.65;1.10;;;20.90;50.10;;;18.78;62.68;96601.06;4950925;28;20031;-61
2022/07/11 07:37:53;;;;;;;3.78;1.02;;;21.10;49.60;;;18.90;63.50;96603.78;4932110;28;20111;-69
2022/07/11 07:40:19;;;;;;;4.30;1.10;;;21.20;50.20;;;19.01;62.93;96599.47;4933372;28;20046;-69
2022/07/11 07:42:45;;;;;;;3.70;1.10;;;21.40;49.40;;;19.21;62.38;96591.97;4962725;28;20463;-67
2022/07/11 07:45:11;;;;;;;2.38;0.82;;;21.70;48.30;;;19.41;61.14;96592.44;4950627;28;20122;-67
2022/07/11 07:47:37;;;;;;;4.22;1.00;;;22.00;47.40;;;19.62;60.41;96590.25;4950547;28;20113;-68
2022/07/11 07:50:04;;;;;;;2.40;0.90;;;22.20;46.40;;;19.79;59.87;96586.66;4945963;28;20043;-68
2022/07/11 07:52:30;;;;;;;1.88;0.75;;;22.20;45.80;;;19.95;58.32;96589.63;4964297;28;20046;-70
2022/07/11 07:54:55;;;;;;;5.03;1.08;;;22.50;46.50;;;20.11;59.40;96586.22;4947729;28;20407;-67
2022/07/11 07:57:21;;;;;;;2.17;1.00;;;22.60;45.80;;;20.35;58.92;96581.59;4964408;28;20518;-67
2022/07/11 07:59:47;;;;;;;3.83;1.05;;;23.10;45.60;;;20.58;58.06;96584.19;4934794;28;20062;-67
2022/07/11 08:02:12;;;;;;;3.78;1.00;;;23.30;44.60;;;20.74;57.02;96577.25;4966881;28;20038;-67
2022/07/11 08:04:38;;;;;;;3.15;0.90;;;23.10;44.70;;;20.92;56.58;96578.91;4981792;28;20027;-70
2022/07/11 08:07:04;;;;;;;3.03;0.90;;;23.20;44.20;;;21.06;56.38;96585.56;4949687;28;20042;-68
2022/07/11 08:09:30;;;;;;;2.22;0.88;;;23.40;44.70;;;21.08;55.38;96576.25;4950972;28;20042;-70
2022/07/11 08:11:55;;;;;;;4.25;0.95;;;23.40;44.20;;;21.28;55.20;96578.44;4948353;28;20047;-69
2022/07/11 08:14:22;;;;;;;6.68;1.50;;;23.70;42.90;;;21.32;54.12;96574.22;4950877;28;20387;-69
2022/07/11 08:16:48;;;;;;;4.40;1.15;;;23.50;42.90;;;21.31;53.53;96566.44;4951187;28;20046;-68
2022/07/11 08:19:13;;;;;;;5.20;1.00;;;23.40;42.90;;;21.29;53.87;96569.38;4949573;28;20045;-69
2022/07/11 08:21:39;;;;;;;3.38;0.93;;;23.10;43.60;;;21.21;53.11;96567.06;4965155;28;20035;-67
2022/07/11 08:24:05;;;;;;;3.90;0.80;;;23.00;43.80;;;21.26;53.49;96574.38;4952098;28;20054;-67
2022/07/11 08:26:31;;;;;;;2.15;1.00;;;23.40;43.90;;;21.29;53.56;96574.72;4956187;28;20260;-69
2022/07/11 08:28:57;;;;;;;2.58;0.70;;;23.70;43.50;;;21.51;53.99;96571.28;4939926;28;20041;-69
2022/07/11 08:31:24;;;;;;;1.90;0.90;;;24.00;43.20;;;21.61;53.54;96569.53;4969718;28;20031;-69
2022/07/11 08:33:50;;;;;;;1.90;0.70;;;23.90;43.50;;;21.67;53.91;96570.41;4937599;28;20089;-69
2022/07/11 08:36:16;;;;;;;3.53;0.70;;;23.70;43.50;;;21.66;53.18;96568.78;4953008;28;20038;-68
2022/07/11 08:38:46;;;;;;;4.20;0.80;;;23.70;43.70;;;21.56;53.50;96572.16;4953625;28;20506;-69
2022/07/11 08:41:12;;;;;;;5.87;3.70;;;23.50;44.10;;;21.51;53.25;96565.94;4971128;28;20518;-69
2022/07/11 08:43:38;;;;;;;4.78;1.45;;;23.40;44.80;;;21.48;52.85;96566.41;4984261;28;20041;-66
2022/07/11 08:46:04;;;;;;;2.33;0.90;;;23.40;44.60;;;21.52;53.86;96568.34;4952373;28;20035;-67
2022/07/11 08:48:30;;;;;;;3.20;1.00;;;23.50;44.60;;;21.65;53.32;96572.53;4952138;28;20034;-67
2022/07/11 08:50:57;;;;;;;1.17;0.55;;;24.10;43.50;;;21.94;52.35;96571.28;4906927;28;20051;-66
2022/07/11 08:53:23;;;;;;;1.52;0.45;;;24.60;41.40;;;22.23;52.38;96563.09;4953831;28;20491;-67
2022/07/11 08:55:49;;;;;;;1.23;0.50;;;25.10;40.50;;;22.46;51.61;96565.50;4971574;28;20038;-63
2022/07/11 08:58:15;;;;;;;0.82;0.40;;;25.40;40.00;;;22.70;50.57;96557.16;4964268;28;20035;-63
2022/07/11 09:00:42;;;;;;;1.58;0.50;;;25.60;40.60;;;22.99;51.27;96561.19;4971715;28;20469;-63
2022/07/11 09:03:13;;;;;;;1.30;0.50;;;26.10;41.10;;;23.20;49.70;96562.94;4948323;28;20414;-63
2022/07/11 09:05:39;;;;;;;;;;;25.90;40.60;;;23.27;47.96;96557.34;4973090;28;20030;-63
2022/07/11 09:08:04;;;;;;;0.93;0.50;;;25.60;39.60;;;23.19;51.07;96566.72;4972447;28;19913;-63
2022/07/11 09:10:30;;;;;;;1.20;0.50;;;25.30;40.30;;;23.12;49.91;96558.06;4948611;28;20077;-63
2022/07/11 09:13:10;;;;;;;1.73;0.73;;;25.10;40.40;;;22.97;48.53;96566.00;4972570;28;20034;-63
2022/07/11 09:15:44;;;;;;;0.93;0.47;;;24.60;42.10;;;22.76;47.88;96554.25;4956411;28;20051;-64
2022/07/11 09:18:28;;;;;;;2.83;0.70;;;24.20;41.40;;;22.57;49.27;96556.47;4953122;29;20042;-64
2022/07/11 09:26:45;;;;;;;4.78;0.50;;;23.60;43.00;;;22.05;48.75;96561.56;4940197;28;20098;-65
2022/07/11 09:29:12;;;;;;;1.67;0.65;;;23.30;43.60;;;21.93;49.81;96558.16;4910046;28;20493;-64
2022/07/11 09:31:44;;;;;;;2.20;0.40;;;23.40;43.70;;;21.90;49.39;96555.97;4972531;28;20100;-65
2022/07/11 09:34:21;;;;;;;1.13;0.52;;;23.40;42.90;;;21.90;50.74;96550.63;4972778;28;20070;-64
2022/07/11 09:36:56;;;;;;;1.02;0.40;;;23.70;44.20;;;21.90;50.25;96548.75;4972364;28;20043;-65
2022/07/11 09:39:28;;;;;;;2.25;0.50;;;23.80;43.70;;;21.99;50.48;96558.00;4966952;28;20404;-65
2022/07/11 09:41:55;;;;;;;2.20;0.57;;;24.10;42.80;;;22.04;50.24;96549.22;4947497;28;20118;-64
2022/07/11 09:44:24;;;;;;;0.38;0.32;;;24.10;42.40;;;22.10;49.63;96547.41;4952757;28;20062;-64
2022/07/11 09:46:51;;;;;;;0.85;0.40;;;24.10;41.80;;;22.18;49.24;96555.84;4967961;28;20447;-64
2022/07/11 09:49:37;;;;;;;1.73;0.40;;;24.30;41.30;;;22.28;49.24;96549.75;4949254;28;20023;-65
2022/07/11 09:52:11;;;;;;;1.67;0.55;;;24.40;42.10;;;22.31;48.58;96547.38;4955360;28;20045;-63
2022/07/11 09:54:56;;;;;;;0.63;0.40;;;24.40;41.10;;;22.45;48.79;96545.13;4961518;28;20046;-62
2022/07/11 09:57:35;;;;;;;1.75;0.40;;;24.80;41.10;;;22.60;48.56;96547.94;4969229;28;20402;-62
2022/07/11 10:00:06;;;;;;;2.20;0.40;;;25.00;41.40;;;22.68;48.10;96549.34;4971903;28;20055;-63
2022/07/11 10:02:32;;;;;;;0.98;0.55;;;25.00;40.40;;;22.69;48.57;96550.16;4954566;28;20034;-62
2022/07/11 10:04:59;;;;;;;0.70;0.30;;;24.80;40.60;;;22.71;48.23;96553.41;4971093;28;20121;-65
2022/07/11 10:07:25;;;;;;;0.63;0.30;;;24.80;40.60;;;22.70;48.65;96554.47;4967677;28;20063;-62
2022/07/11 10:09:51;;;;;;;1.20;0.30;;;24.60;41.00;;;22.70;47.78;96557.16;4963795;28;20172;-63
2022/07/11 10:12:17;;;;;;;1.88;0.50;;;24.60;41.00;;;22.70;47.82;96555.28;4952007;28;20058;-62
2022/07/11 10:14:43;;;;;;;2.00;0.30;;;24.60;40.70;;;22.78;48.59;96554.81;4919478;29;20460;-61
2022/07/11 10:17:59;;;;;;;2.28;0.43;;;24.90;41.20;;;22.90;47.78;96557.34;4931986;28;20039;-62
2022/07/11 10:20:31;;;;;;;1.70;0.40;;;25.10;41.40;;;22.96;48.44;96556.31;4924075;28;20372;-61
2022/07/11 10:23:26;;;;;;;0.85;0.50;;;25.10;40.90;;;23.00;47.19;96567.34;4967930;28;20481;-61
2022/07/11 10:26:04;;;;;;;2.28;0.98;;;24.90;41.10;;;23.02;47.76;96559.84;4962725;28;20046;-70
2022/07/11 10:28:44;;;;;;;1.15;0.60;;;25.00;41.20;;;23.02;47.92;96566.03;4967061;28;20046;-68